Jarrell, Texas
Current Conditions -  °F | °C
As of 12:23 PM on Thursday 29 Jan 2015 (Local Time) from KGTU Reporting Station
Clear Clear  
Wind Chill: 75°   Ceiling: Unl
Heat Index: 75°   Visibility: 10mi
Dew Point: 48°   Wind: 7mph
Humidity: 38%   Direction: 340°NNW
Pressure: 30.23"   Gusts: NA
Location:  30.82°N, 97.6°W
Report Text: KGTU 291823Z 34006KT 10SM CLR 24/09 A3023
Loading
Personal Weather Stations






























Interactive Weather Map New forecast layout! Learn more

10-Day Weather Forecast

Advertisements
Track Severe Weather on mobile